Overview Statistics Trail Chart Weather Telemetry Raw packets
 

This is the latest recevied weather packets stored in our database for station/object HA5KNF-10. If no packets are shown the sender has not sent any weather packets the latest 10 day(s).

<< 6 7 8 9 >>
Time Temp. Humidity Pressure Rain* Wind** Luminosity Snow
1787882433 23.89° C 38% 1005.2 hPa - - - -
1787875353 24.44° C 38% 1005.4 hPa - - - -
1787871813 25° C 38% 1005.6 hPa - - - -
1787868273 25° C 38% 1005.4 hPa - - - -
1787864733 25.56° C 38% 1005 hPa - - - -
1787861193 25.56° C 38% 1004.6 hPa - - - -
1787854111 26.11° C 37% 1004.1 hPa - - - -
1787850571 27.22° C 37% 1003.7 hPa - - - -
1787847036 27.22° C 38% 1003.5 hPa - - - -
1787843490 27.22° C 39% 1003.5 hPa - - - -
1787839950 26.67° C 40% 1004 hPa - - - -
1787836410 26.11° C 40% 1004.2 hPa - - - -
1787832870 25.56° C 41% 1004.6 hPa - - - -
1787829330 25° C 40% 1005.3 hPa - - - -
1787825790 24.44° C 40% 1005.3 hPa - - - -
1787818709 23.33° C 39% 1006.2 hPa - - - -
1787815169 23.33° C 38% 1005.9 hPa - - - -
1787811628 23.33° C 39% 1005.5 hPa - - - -
1787808088 23.33° C 38% 1005.6 hPa - - - -
1787801008 23.33° C 37% 1005 hPa - - - -
1787797468 23.89° C 37% 1005 hPa - - - -
1787790288 24.44° C 37% 1005.3 hPa - - - -

* Rain since midnight (hover to see other rain measurements)
** Current wind speed in m/s (hover to see current wind gust speed)